sensor_id;sensor_type;location;lat;lon;timestamp;P1;durP1;ratioP1;P2;durP2;ratioP2
22298;SDS011;11317;51.072;17.036;2024-01-30T00:01:43;4.68;;;3.30;;
22298;SDS011;11317;51.072;17.036;2024-01-30T00:04:09;4.82;;;2.60;;
22298;SDS011;11317;51.072;17.036;2024-01-30T00:06:35;6.30;;;3.13;;
22298;SDS011;11317;51.072;17.036;2024-01-30T00:09:01;5.45;;;2.78;;
22298;SDS011;11317;51.072;17.036;2024-01-30T00:11:27;6.40;;;3.42;;
22298;SDS011;11317;51.072;17.036;2024-01-30T00:13:54;4.43;;;2.75;;
22298;SDS011;11317;51.072;17.036;2024-01-30T00:16:23;5.80;;;3.45;;
22298;SDS011;11317;51.072;17.036;2024-01-30T00:18:53;6.72;;;2.92;;
22298;SDS011;11317;51.072;17.036;2024-01-30T00:21:19;7.03;;;3.45;;
22298;SDS011;11317;51.072;17.036;2024-01-30T00:23:46;6.57;;;3.33;;
22298;SDS011;11317;51.072;17.036;2024-01-30T00:26:12;8.68;;;3.08;;
22298;SDS011;11317;51.072;17.036;2024-01-30T00:28:42;5.88;;;3.22;;
22298;SDS011;11317;51.072;17.036;2024-01-30T00:31:08;3.85;;;2.95;;
22298;SDS011;11317;51.072;17.036;2024-01-30T00:33:40;5.68;;;3.35;;
22298;SDS011;11317;51.072;17.036;2024-01-30T00:36:07;6.53;;;3.05;;
22298;SDS011;11317;51.072;17.036;2024-01-30T00:38:33;7.47;;;4.10;;
22298;SDS011;11317;51.072;17.036;2024-01-30T00:41:00;11.52;;;3.60;;
22298;SDS011;11317;51.072;17.036;2024-01-30T00:43:27;5.40;;;3.20;;
22298;SDS011;11317;51.072;17.036;2024-01-30T00:45:53;7.32;;;2.83;;
22298;SDS011;11317;51.072;17.036;2024-01-30T00:48:19;5.97;;;2.75;;
22298;SDS011;11317;51.072;17.036;2024-01-30T00:50:45;7.50;;;3.20;;
22298;SDS011;11317;51.072;17.036;2024-01-30T00:53:12;6.55;;;2.83;;
22298;SDS011;11317;51.072;17.036;2024-01-30T00:55:38;6.32;;;3.13;;
22298;SDS011;11317;51.072;17.036;2024-01-30T00:58:04;7.88;;;3.17;;
22298;SDS011;11317;51.072;17.036;2024-01-30T01:00:30;5.95;;;3.15;;
22298;SDS011;11317;51.072;17.036;2024-01-30T01:02:57;5.57;;;3.30;;
22298;SDS011;11317;51.072;17.036;2024-01-30T01:05:23;8.55;;;3.85;;
22298;SDS011;11317;51.072;17.036;2024-01-30T01:07:49;11.07;;;3.63;;
22298;SDS011;11317;51.072;17.036;2024-01-30T01:10:16;9.98;;;3.85;;
22298;SDS011;11317;51.072;17.036;2024-01-30T01:12:42;8.40;;;2.80;;
22298;SDS011;11317;51.072;17.036;2024-01-30T01:15:08;3.85;;;2.60;;
22298;SDS011;11317;51.072;17.036;2024-01-30T01:17:35;7.65;;;3.42;;
22298;SDS011;11317;51.072;17.036;2024-01-30T01:20:02;18.05;;;3.50;;
22298;SDS011;11317;51.072;17.036;2024-01-30T01:22:30;9.95;;;4.13;;
22298;SDS011;11317;51.072;17.036;2024-01-30T01:24:56;5.75;;;3.42;;
22298;SDS011;11317;51.072;17.036;2024-01-30T01:27:22;7.15;;;3.80;;
22298;SDS011;11317;51.072;17.036;2024-01-30T01:29:48;5.90;;;3.22;;
22298;SDS011;11317;51.072;17.036;2024-01-30T01:32:14;4.93;;;3.28;;
22298;SDS011;11317;51.072;17.036;2024-01-30T01:34:40;6.10;;;3.47;;
22298;SDS011;11317;51.072;17.036;2024-01-30T01:37:06;6.45;;;3.22;;
22298;SDS011;11317;51.072;17.036;2024-01-30T01:39:32;7.47;;;3.42;;
22298;SDS011;11317;51.072;17.036;2024-01-30T01:41:58;4.40;;;3.20;;
22298;SDS011;11317;51.072;17.036;2024-01-30T01:44:24;10.25;;;3.63;;
22298;SDS011;11317;51.072;17.036;2024-01-30T01:46:50;5.25;;;3.42;;
22298;SDS011;11317;51.072;17.036;2024-01-30T01:49:17;14.38;;;3.42;;
22298;SDS011;11317;51.072;17.036;2024-01-30T01:51:44;3.65;;;2.58;;
22298;SDS011;11317;51.072;17.036;2024-01-30T01:54:12;6.93;;;3.72;;
22298;SDS011;11317;51.072;17.036;2024-01-30T01:56:41;4.47;;;3.40;;
22298;SDS011;11317;51.072;17.036;2024-01-30T01:59:08;7.93;;;4.15;;
22298;SDS011;11317;51.072;17.036;2024-01-30T02:01:37;6.13;;;3.88;;
22298;SDS011;11317;51.072;17.036;2024-01-30T02:04:06;6.05;;;3.10;;
22298;SDS011;11317;51.072;17.036;2024-01-30T02:06:33;5.88;;;3.10;;
22298;SDS011;11317;51.072;17.036;2024-01-30T02:09:02;11.75;;;4.38;;
22298;SDS011;11317;51.072;17.036;2024-01-30T02:11:29;8.20;;;3.50;;
22298;SDS011;11317;51.072;17.036;2024-01-30T02:14:01;7.25;;;3.88;;
22298;SDS011;11317;51.072;17.036;2024-01-30T02:16:30;8.40;;;4.07;;
22298;SDS011;11317;51.072;17.036;2024-01-30T02:18:56;6.72;;;3.78;;
22298;SDS011;11317;51.072;17.036;2024-01-30T02:21:23;8.52;;;3.65;;
22298;SDS011;11317;51.072;17.036;2024-01-30T02:23:49;9.68;;;3.95;;
22298;SDS011;11317;51.072;17.036;2024-01-30T02:26:17;9.65;;;3.70;;
22298;SDS011;11317;51.072;17.036;2024-01-30T02:28:43;6.00;;;3.83;;
22298;SDS011;11317;51.072;17.036;2024-01-30T02:31:09;5.78;;;3.85;;
22298;SDS011;11317;51.072;17.036;2024-01-30T02:33:35;8.90;;;4.60;;
22298;SDS011;11317;51.072;17.036;2024-01-30T02:36:02;6.90;;;4.68;;
22298;SDS011;11317;51.072;17.036;2024-01-30T02:38:28;12.00;;;4.13;;
22298;SDS011;11317;51.072;17.036;2024-01-30T02:40:54;4.13;;;3.00;;
22298;SDS011;11317;51.072;17.036;2024-01-30T02:43:21;10.10;;;4.10;;
22298;SDS011;11317;51.072;17.036;2024-01-30T02:45:47;8.18;;;4.63;;
22298;SDS011;11317;51.072;17.036;2024-01-30T02:48:13;8.88;;;4.25;;
22298;SDS011;11317;51.072;17.036;2024-01-30T02:50:39;11.38;;;4.63;;
22298;SDS011;11317;51.072;17.036;2024-01-30T02:53:05;9.20;;;3.65;;
22298;SDS011;11317;51.072;17.036;2024-01-30T02:55:31;11.05;;;4.25;;
22298;SDS011;11317;51.072;17.036;2024-01-30T02:57:57;13.18;;;4.55;;
22298;SDS011;11317;51.072;17.036;2024-01-30T03:00:23;7.22;;;4.25;;
22298;SDS011;11317;51.072;17.036;2024-01-30T03:02:49;9.95;;;3.97;;
22298;SDS011;11317;51.072;17.036;2024-01-30T03:05:15;11.30;;;4.63;;
22298;SDS011;11317;51.072;17.036;2024-01-30T03:07:41;7.90;;;3.78;;
22298;SDS011;11317;51.072;17.036;2024-01-30T03:10:07;10.35;;;4.35;;
22298;SDS011;11317;51.072;17.036;2024-01-30T03:12:33;7.03;;;3.85;;
22298;SDS011;11317;51.072;17.036;2024-01-30T03:14:59;7.40;;;3.63;;
22298;SDS011;11317;51.072;17.036;2024-01-30T03:17:25;8.00;;;3.80;;
22298;SDS011;11317;51.072;17.036;2024-01-30T03:19:51;10.48;;;4.28;;
22298;SDS011;11317;51.072;17.036;2024-01-30T03:22:18;9.13;;;3.90;;
22298;SDS011;11317;51.072;17.036;2024-01-30T03:24:43;5.15;;;3.88;;
22298;SDS011;11317;51.072;17.036;2024-01-30T03:27:10;6.25;;;3.78;;
22298;SDS011;11317;51.072;17.036;2024-01-30T03:29:36;7.80;;;4.30;;
22298;SDS011;11317;51.072;17.036;2024-01-30T03:32:02;13.85;;;5.18;;
22298;SDS011;11317;51.072;17.036;2024-01-30T03:34:29;9.63;;;4.25;;
22298;SDS011;11317;51.072;17.036;2024-01-30T03:36:55;7.05;;;4.18;;
22298;SDS011;11317;51.072;17.036;2024-01-30T03:39:22;13.38;;;4.85;;
22298;SDS011;11317;51.072;17.036;2024-01-30T03:41:48;6.15;;;3.30;;
22298;SDS011;11317;51.072;17.036;2024-01-30T03:44:14;5.78;;;3.17;;
22298;SDS011;11317;51.072;17.036;2024-01-30T03:46:40;6.70;;;4.03;;
22298;SDS011;11317;51.072;17.036;2024-01-30T03:49:06;6.25;;;4.05;;
22298;SDS011;11317;51.072;17.036;2024-01-30T03:51:32;8.32;;;4.13;;
22298;SDS011;11317;51.072;17.036;2024-01-30T03:53:59;9.60;;;4.40;;
22298;SDS011;11317;51.072;17.036;2024-01-30T03:56:25;8.85;;;4.45;;
22298;SDS011;11317;51.072;17.036;2024-01-30T03:58:51;7.13;;;4.20;;
22298;SDS011;11317;51.072;17.036;2024-01-30T04:01:17;8.65;;;4.88;;
22298;SDS011;11317;51.072;17.036;2024-01-30T04:03:44;9.18;;;4.80;;
22298;SDS011;11317;51.072;17.036;2024-01-30T04:06:10;9.95;;;5.65;;
22298;SDS011;11317;51.072;17.036;2024-01-30T04:08:35;8.68;;;5.03;;
22298;SDS011;11317;51.072;17.036;2024-01-30T04:11:05;10.23;;;5.53;;
22298;SDS011;11317;51.072;17.036;2024-01-30T04:13:31;11.60;;;5.47;;
22298;SDS011;11317;51.072;17.036;2024-01-30T04:16:01;10.35;;;5.80;;
22298;SDS011;11317;51.072;17.036;2024-01-30T04:18:27;10.57;;;5.95;;
22298;SDS011;11317;51.072;17.036;2024-01-30T04:20:53;9.50;;;4.85;;
22298;SDS011;11317;51.072;17.036;2024-01-30T04:23:19;11.23;;;6.13;;
22298;SDS011;11317;51.072;17.036;2024-01-30T04:25:45;8.70;;;4.95;;
22298;SDS011;11317;51.072;17.036;2024-01-30T04:28:11;16.23;;;7.07;;
22298;SDS011;11317;51.072;17.036;2024-01-30T04:30:37;11.52;;;5.40;;
22298;SDS011;11317;51.072;17.036;2024-01-30T04:33:04;10.73;;;5.20;;
22298;SDS011;11317;51.072;17.036;2024-01-30T04:35:30;11.43;;;5.25;;
22298;SDS011;11317;51.072;17.036;2024-01-30T04:37:56;23.13;;;7.57;;
22298;SDS011;11317;51.072;17.036;2024-01-30T04:40:22;11.85;;;4.53;;
22298;SDS011;11317;51.072;17.036;2024-01-30T04:42:48;10.25;;;4.85;;
22298;SDS011;11317;51.072;17.036;2024-01-30T04:45:14;6.93;;;4.20;;
22298;SDS011;11317;51.072;17.036;2024-01-30T04:47:40;9.68;;;3.67;;
22298;SDS011;11317;51.072;17.036;2024-01-30T04:50:06;6.30;;;3.60;;
22298;SDS011;11317;51.072;17.036;2024-01-30T04:52:33;9.02;;;4.20;;
22298;SDS011;11317;51.072;17.036;2024-01-30T04:55:00;11.43;;;4.57;;
22298;SDS011;11317;51.072;17.036;2024-01-30T04:57:26;11.45;;;4.18;;
22298;SDS011;11317;51.072;17.036;2024-01-30T04:59:52;8.27;;;4.32;;
22298;SDS011;11317;51.072;17.036;2024-01-30T05:02:18;6.00;;;3.60;;
22298;SDS011;11317;51.072;17.036;2024-01-30T05:04:44;8.85;;;3.75;;
22298;SDS011;11317;51.072;17.036;2024-01-30T05:07:10;11.63;;;4.13;;
22298;SDS011;11317;51.072;17.036;2024-01-30T05:09:36;7.00;;;4.15;;
22298;SDS011;11317;51.072;17.036;2024-01-30T05:12:02;6.95;;;3.78;;
22298;SDS011;11317;51.072;17.036;2024-01-30T05:14:28;5.93;;;4.03;;
22298;SDS011;11317;51.072;17.036;2024-01-30T05:16:54;10.13;;;4.53;;
22298;SDS011;11317;51.072;17.036;2024-01-30T05:19:20;7.70;;;4.25;;
22298;SDS011;11317;51.072;17.036;2024-01-30T05:21:48;7.88;;;4.55;;
22298;SDS011;11317;51.072;17.036;2024-01-30T05:24:14;8.77;;;4.95;;
22298;SDS011;11317;51.072;17.036;2024-01-30T05:26:40;9.82;;;3.63;;
22298;SDS011;11317;51.072;17.036;2024-01-30T05:29:06;12.55;;;5.63;;
22298;SDS011;11317;51.072;17.036;2024-01-30T05:31:33;10.35;;;5.10;;
22298;SDS011;11317;51.072;17.036;2024-01-30T05:33:59;8.38;;;4.35;;
22298;SDS011;11317;51.072;17.036;2024-01-30T05:36:25;6.93;;;3.67;;
22298;SDS011;11317;51.072;17.036;2024-01-30T05:38:52;11.73;;;4.82;;
22298;SDS011;11317;51.072;17.036;2024-01-30T05:41:18;11.48;;;4.38;;
22298;SDS011;11317;51.072;17.036;2024-01-30T05:43:44;12.60;;;5.43;;
22298;SDS011;11317;51.072;17.036;2024-01-30T05:46:10;16.17;;;6.57;;
22298;SDS011;11317;51.072;17.036;2024-01-30T05:48:36;13.60;;;6.15;;
22298;SDS011;11317;51.072;17.036;2024-01-30T05:51:02;13.48;;;5.38;;
22298;SDS011;11317;51.072;17.036;2024-01-30T05:53:29;12.05;;;5.90;;
22298;SDS011;11317;51.072;17.036;2024-01-30T05:55:55;12.20;;;6.78;;
22298;SDS011;11317;51.072;17.036;2024-01-30T05:58:21;9.88;;;6.22;;
22298;SDS011;11317;51.072;17.036;2024-01-30T06:00:47;19.48;;;9.77;;
22298;SDS011;11317;51.072;17.036;2024-01-30T06:03:13;78.07;;;32.55;;
22298;SDS011;11317;51.072;17.036;2024-01-30T06:05:38;52.08;;;23.33;;
22298;SDS011;11317;51.072;17.036;2024-01-30T06:08:05;15.25;;;8.00;;
22298;SDS011;11317;51.072;17.036;2024-01-30T06:10:31;24.02;;;9.77;;
22298;SDS011;11317;51.072;17.036;2024-01-30T06:12:57;51.67;;;25.10;;
22298;SDS011;11317;51.072;17.036;2024-01-30T06:15:23;14.60;;;7.18;;
22298;SDS011;11317;51.072;17.036;2024-01-30T06:17:49;10.73;;;5.53;;
22298;SDS011;11317;51.072;17.036;2024-01-30T06:20:15;10.95;;;5.13;;
22298;SDS011;11317;51.072;17.036;2024-01-30T06:22:41;14.80;;;6.70;;
22298;SDS011;11317;51.072;17.036;2024-01-30T06:25:07;11.73;;;7.03;;
22298;SDS011;11317;51.072;17.036;2024-01-30T06:27:33;14.18;;;6.50;;
22298;SDS011;11317;51.072;17.036;2024-01-30T06:30:00;12.55;;;6.85;;
22298;SDS011;11317;51.072;17.036;2024-01-30T06:32:26;15.70;;;8.10;;
22298;SDS011;11317;51.072;17.036;2024-01-30T06:34:53;15.77;;;7.70;;
22298;SDS011;11317;51.072;17.036;2024-01-30T06:37:19;14.75;;;6.65;;
22298;SDS011;11317;51.072;17.036;2024-01-30T06:39:45;11.70;;;5.28;;
22298;SDS011;11317;51.072;17.036;2024-01-30T06:42:11;8.65;;;4.35;;
22298;SDS011;11317;51.072;17.036;2024-01-30T06:44:38;13.20;;;5.47;;
22298;SDS011;11317;51.072;17.036;2024-01-30T06:47:04;12.35;;;5.68;;
22298;SDS011;11317;51.072;17.036;2024-01-30T06:49:30;9.70;;;5.22;;
22298;SDS011;11317;51.072;17.036;2024-01-30T06:51:56;10.80;;;6.22;;
22298;SDS011;11317;51.072;17.036;2024-01-30T06:54:22;8.15;;;4.93;;
22298;SDS011;11317;51.072;17.036;2024-01-30T06:56:48;10.18;;;4.82;;
22298;SDS011;11317;51.072;17.036;2024-01-30T06:59:14;10.60;;;5.03;;
22298;SDS011;11317;51.072;17.036;2024-01-30T07:01:40;12.18;;;5.32;;
22298;SDS011;11317;51.072;17.036;2024-01-30T07:04:07;7.63;;;5.10;;
22298;SDS011;11317;51.072;17.036;2024-01-30T07:06:33;5.60;;;4.18;;
22298;SDS011;11317;51.072;17.036;2024-01-30T07:08:59;9.80;;;4.65;;
22298;SDS011;11317;51.072;17.036;2024-01-30T07:11:25;8.07;;;4.40;;
22298;SDS011;11317;51.072;17.036;2024-01-30T07:13:51;9.90;;;5.07;;
22298;SDS011;11317;51.072;17.036;2024-01-30T07:16:17;11.90;;;5.30;;
22298;SDS011;11317;51.072;17.036;2024-01-30T07:18:43;9.05;;;4.57;;
22298;SDS011;11317;51.072;17.036;2024-01-30T07:21:09;9.57;;;5.53;;
22298;SDS011;11317;51.072;17.036;2024-01-30T07:23:35;8.02;;;5.18;;
22298;SDS011;11317;51.072;17.036;2024-01-30T07:26:06;11.30;;;6.28;;
22298;SDS011;11317;51.072;17.036;2024-01-30T07:28:35;17.92;;;7.28;;
22298;SDS011;11317;51.072;17.036;2024-01-30T07:31:01;15.88;;;6.55;;
22298;SDS011;11317;51.072;17.036;2024-01-30T07:33:27;17.08;;;7.38;;
22298;SDS011;11317;51.072;17.036;2024-01-30T07:35:53;12.15;;;5.82;;
22298;SDS011;11317;51.072;17.036;2024-01-30T07:38:19;12.82;;;6.30;;
22298;SDS011;11317;51.072;17.036;2024-01-30T07:40:45;14.77;;;6.03;;
22298;SDS011;11317;51.072;17.036;2024-01-30T07:43:12;18.92;;;6.10;;
22298;SDS011;11317;51.072;17.036;2024-01-30T07:45:38;12.57;;;6.30;;
22298;SDS011;11317;51.072;17.036;2024-01-30T07:48:05;13.07;;;6.90;;
22298;SDS011;11317;51.072;17.036;2024-01-30T07:50:31;13.90;;;8.77;;
22298;SDS011;11317;51.072;17.036;2024-01-30T07:52:58;9.18;;;4.57;;
22298;SDS011;11317;51.072;17.036;2024-01-30T07:55:25;19.77;;;8.93;;
22298;SDS011;11317;51.072;17.036;2024-01-30T07:57:54;15.25;;;8.90;;
22298;SDS011;11317;51.072;17.036;2024-01-30T08:00:20;9.75;;;5.75;;
22298;SDS011;11317;51.072;17.036;2024-01-30T08:02:47;15.30;;;5.63;;
22298;SDS011;11317;51.072;17.036;2024-01-30T08:05:13;13.93;;;5.57;;
22298;SDS011;11317;51.072;17.036;2024-01-30T08:07:43;8.68;;;4.68;;
22298;SDS011;11317;51.072;17.036;2024-01-30T08:10:11;8.32;;;4.68;;
22298;SDS011;11317;51.072;17.036;2024-01-30T08:12:37;8.90;;;5.05;;
22298;SDS011;11317;51.072;17.036;2024-01-30T08:15:03;11.35;;;5.30;;
22298;SDS011;11317;51.072;17.036;2024-01-30T08:17:29;8.70;;;4.65;;
22298;SDS011;11317;51.072;17.036;2024-01-30T08:19:55;8.35;;;4.10;;
22298;SDS011;11317;51.072;17.036;2024-01-30T08:22:22;11.45;;;4.80;;
22298;SDS011;11317;51.072;17.036;2024-01-30T08:24:48;13.27;;;6.50;;
22298;SDS011;11317;51.072;17.036;2024-01-30T08:27:14;9.50;;;5.05;;
22298;SDS011;11317;51.072;17.036;2024-01-30T08:29:40;9.88;;;4.82;;
22298;SDS011;11317;51.072;17.036;2024-01-30T08:32:06;11.82;;;4.85;;
22298;SDS011;11317;51.072;17.036;2024-01-30T08:34:32;11.82;;;5.10;;
22298;SDS011;11317;51.072;17.036;2024-01-30T08:36:58;7.85;;;4.57;;
22298;SDS011;11317;51.072;17.036;2024-01-30T08:39:24;9.25;;;4.72;;
22298;SDS011;11317;51.072;17.036;2024-01-30T08:41:50;11.65;;;4.82;;
22298;SDS011;11317;51.072;17.036;2024-01-30T08:44:16;6.97;;;4.05;;
22298;SDS011;11317;51.072;17.036;2024-01-30T08:46:43;9.77;;;4.60;;
22298;SDS011;11317;51.072;17.036;2024-01-30T08:49:11;7.70;;;3.85;;
22298;SDS011;11317;51.072;17.036;2024-01-30T08:51:38;6.07;;;3.50;;
22298;SDS011;11317;51.072;17.036;2024-01-30T08:54:05;11.35;;;3.65;;
22298;SDS011;11317;51.072;17.036;2024-01-30T08:56:31;11.48;;;4.43;;
22298;SDS011;11317;51.072;17.036;2024-01-30T08:58:57;8.05;;;3.92;;
22298;SDS011;11317;51.072;17.036;2024-01-30T09:01:23;7.20;;;3.50;;
22298;SDS011;11317;51.072;17.036;2024-01-30T09:03:50;7.75;;;3.47;;
22298;SDS011;11317;51.072;17.036;2024-01-30T09:06:16;9.73;;;4.60;;
22298;SDS011;11317;51.072;17.036;2024-01-30T09:08:42;6.82;;;4.15;;
22298;SDS011;11317;51.072;17.036;2024-01-30T09:11:08;8.40;;;3.92;;
22298;SDS011;11317;51.072;17.036;2024-01-30T09:13:35;8.63;;;4.40;;
22298;SDS011;11317;51.072;17.036;2024-01-30T09:16:01;8.27;;;4.07;;
22298;SDS011;11317;51.072;17.036;2024-01-30T09:18:27;6.20;;;3.42;;
22298;SDS011;11317;51.072;17.036;2024-01-30T09:20:54;6.55;;;3.47;;
22298;SDS011;11317;51.072;17.036;2024-01-30T09:23:20;8.75;;;4.22;;
22298;SDS011;11317;51.072;17.036;2024-01-30T09:25:47;6.13;;;3.38;;
22298;SDS011;11317;51.072;17.036;2024-01-30T09:28:13;6.60;;;3.45;;
22298;SDS011;11317;51.072;17.036;2024-01-30T09:30:39;6.18;;;3.42;;
22298;SDS011;11317;51.072;17.036;2024-01-30T09:33:06;7.18;;;3.53;;
22298;SDS011;11317;51.072;17.036;2024-01-30T09:35:32;7.72;;;3.70;;
22298;SDS011;11317;51.072;17.036;2024-01-30T09:37:58;6.07;;;3.42;;
22298;SDS011;11317;51.072;17.036;2024-01-30T09:40:25;5.90;;;3.42;;
22298;SDS011;11317;51.072;17.036;2024-01-30T09:42:51;5.95;;;3.90;;
22298;SDS011;11317;51.072;17.036;2024-01-30T09:45:17;6.47;;;4.05;;
22298;SDS011;11317;51.072;17.036;2024-01-30T09:47:44;7.20;;;4.00;;
22298;SDS011;11317;51.072;17.036;2024-01-30T09:50:11;5.75;;;3.20;;
22298;SDS011;11317;51.072;17.036;2024-01-30T09:52:38;7.53;;;3.25;;
22298;SDS011;11317;51.072;17.036;2024-01-30T09:55:05;5.15;;;3.00;;
22298;SDS011;11317;51.072;17.036;2024-01-30T09:57:32;5.03;;;2.70;;
22298;SDS011;11317;51.072;17.036;2024-01-30T09:59:59;5.53;;;3.10;;
22298;SDS011;11317;51.072;17.036;2024-01-30T10:02:25;7.85;;;3.42;;
22298;SDS011;11317;51.072;17.036;2024-01-30T10:04:51;6.50;;;3.78;;
22298;SDS011;11317;51.072;17.036;2024-01-30T10:07:18;6.47;;;3.30;;
22298;SDS011;11317;51.072;17.036;2024-01-30T10:09:45;4.85;;;2.85;;
22298;SDS011;11317;51.072;17.036;2024-01-30T10:12:11;5.88;;;3.38;;
22298;SDS011;11317;51.072;17.036;2024-01-30T10:14:40;5.88;;;3.50;;
22298;SDS011;11317;51.072;17.036;2024-01-30T10:17:07;6.65;;;3.38;;
22298;SDS011;11317;51.072;17.036;2024-01-30T10:19:34;4.88;;;2.58;;
22298;SDS011;11317;51.072;17.036;2024-01-30T10:22:01;9.25;;;3.75;;
22298;SDS011;11317;51.072;17.036;2024-01-30T10:24:27;6.93;;;3.38;;
22298;SDS011;11317;51.072;17.036;2024-01-30T10:26:54;4.55;;;3.08;;
22298;SDS011;11317;51.072;17.036;2024-01-30T10:29:21;8.32;;;2.83;;
22298;SDS011;11317;51.072;17.036;2024-01-30T10:31:57;5.15;;;3.10;;
22298;SDS011;11317;51.072;17.036;2024-01-30T10:34:24;5.70;;;2.45;;
22298;SDS011;11317;51.072;17.036;2024-01-30T10:36:50;7.10;;;3.30;;
22298;SDS011;11317;51.072;17.036;2024-01-30T10:39:25;6.70;;;3.50;;
22298;SDS011;11317;51.072;17.036;2024-01-30T10:41:59;6.93;;;3.13;;
22298;SDS011;11317;51.072;17.036;2024-01-30T10:44:30;5.57;;;3.50;;
22298;SDS011;11317;51.072;17.036;2024-01-30T10:47:03;5.30;;;3.35;;
22298;SDS011;11317;51.072;17.036;2024-01-30T10:49:34;4.22;;;3.03;;
22298;SDS011;11317;51.072;17.036;2024-01-30T10:52:00;6.63;;;2.92;;
22298;SDS011;11317;51.072;17.036;2024-01-30T10:54:28;5.20;;;3.08;;
22298;SDS011;11317;51.072;17.036;2024-01-30T10:56:55;9.10;;;2.67;;
22298;SDS011;11317;51.072;17.036;2024-01-30T10:59:26;3.45;;;2.75;;
22298;SDS011;11317;51.072;17.036;2024-01-30T11:01:53;5.53;;;3.10;;
22298;SDS011;11317;51.072;17.036;2024-01-30T11:04:19;5.13;;;3.08;;
22298;SDS011;11317;51.072;17.036;2024-01-30T11:06:45;7.50;;;3.67;;
22298;SDS011;11317;51.072;17.036;2024-01-30T11:09:16;6.28;;;3.08;;
22298;SDS011;11317;51.072;17.036;2024-01-30T11:11:56;5.18;;;2.85;;
22298;SDS011;11317;51.072;17.036;2024-01-30T11:14:26;5.47;;;2.63;;
22298;SDS011;11317;51.072;17.036;2024-01-30T11:16:57;4.90;;;2.50;;
22298;SDS011;11317;51.072;17.036;2024-01-30T11:19:24;7.88;;;3.00;;
22298;SDS011;11317;51.072;17.036;2024-01-30T11:21:51;4.78;;;2.90;;
22298;SDS011;11317;51.072;17.036;2024-01-30T11:24:22;7.15;;;3.33;;
22298;SDS011;11317;51.072;17.036;2024-01-30T11:26:55;9.48;;;3.50;;
22298;SDS011;11317;51.072;17.036;2024-01-30T11:29:27;8.10;;;2.95;;
22298;SDS011;11317;51.072;17.036;2024-01-30T11:31:57;5.75;;;2.95;;
22298;SDS011;11317;51.072;17.036;2024-01-30T11:34:24;4.95;;;2.67;;
22298;SDS011;11317;51.072;17.036;2024-01-30T11:36:56;5.47;;;2.95;;
22298;SDS011;11317;51.072;17.036;2024-01-30T11:39:25;9.85;;;2.85;;
22298;SDS011;11317;51.072;17.036;2024-01-30T11:41:54;6.25;;;3.08;;
22298;SDS011;11317;51.072;17.036;2024-01-30T11:44:20;7.40;;;3.35;;
22298;SDS011;11317;51.072;17.036;2024-01-30T11:46:47;4.90;;;2.90;;
22298;SDS011;11317;51.072;17.036;2024-01-30T11:49:14;7.60;;;3.05;;
22298;SDS011;11317;51.072;17.036;2024-01-30T11:51:40;5.65;;;2.95;;
22298;SDS011;11317;51.072;17.036;2024-01-30T11:54:07;4.22;;;2.63;;
22298;SDS011;11317;51.072;17.036;2024-01-30T11:56:33;5.25;;;2.70;;
22298;SDS011;11317;51.072;17.036;2024-01-30T11:58:59;4.95;;;2.83;;
22298;SDS011;11317;51.072;17.036;2024-01-30T12:01:26;5.55;;;2.97;;
22298;SDS011;11317;51.072;17.036;2024-01-30T12:03:52;4.07;;;2.65;;
22298;SDS011;11317;51.072;17.036;2024-01-30T12:06:18;5.90;;;2.92;;
22298;SDS011;11317;51.072;17.036;2024-01-30T12:09:03;5.50;;;2.83;;
22298;SDS011;11317;51.072;17.036;2024-01-30T12:11:29;6.05;;;3.08;;
22298;SDS011;11317;51.072;17.036;2024-01-30T12:13:55;5.75;;;3.13;;
22298;SDS011;11317;51.072;17.036;2024-01-30T12:16:22;5.38;;;2.45;;
22298;SDS011;11317;51.072;17.036;2024-01-30T12:18:48;5.78;;;2.80;;
22298;SDS011;11317;51.072;17.036;2024-01-30T12:21:17;3.92;;;2.80;;
22298;SDS011;11317;51.072;17.036;2024-01-30T12:23:43;5.47;;;2.83;;
22298;SDS011;11317;51.072;17.036;2024-01-30T12:26:09;8.82;;;3.15;;
22298;SDS011;11317;51.072;17.036;2024-01-30T12:28:35;7.18;;;2.90;;
22298;SDS011;11317;51.072;17.036;2024-01-30T12:31:02;9.63;;;2.92;;
22298;SDS011;11317;51.072;17.036;2024-01-30T12:33:29;6.75;;;3.10;;
22298;SDS011;11317;51.072;17.036;2024-01-30T12:36:01;6.35;;;3.10;;
22298;SDS011;11317;51.072;17.036;2024-01-30T12:38:27;5.18;;;2.85;;
22298;SDS011;11317;51.072;17.036;2024-01-30T12:40:54;5.22;;;3.10;;
22298;SDS011;11317;51.072;17.036;2024-01-30T12:43:21;4.55;;;2.63;;
22298;SDS011;11317;51.072;17.036;2024-01-30T12:45:48;8.32;;;3.00;;
22298;SDS011;11317;51.072;17.036;2024-01-30T12:48:14;6.18;;;3.13;;
22298;SDS011;11317;51.072;17.036;2024-01-30T12:50:41;8.07;;;2.72;;
22298;SDS011;11317;51.072;17.036;2024-01-30T12:53:07;5.20;;;2.97;;
22298;SDS011;11317;51.072;17.036;2024-01-30T12:55:34;9.63;;;2.85;;
22298;SDS011;11317;51.072;17.036;2024-01-30T12:58:00;6.80;;;3.00;;
22298;SDS011;11317;51.072;17.036;2024-01-30T13:00:27;4.82;;;2.88;;
22298;SDS011;11317;51.072;17.036;2024-01-30T13:02:53;5.00;;;2.88;;
22298;SDS011;11317;51.072;17.036;2024-01-30T13:05:19;9.07;;;3.42;;
22298;SDS011;11317;51.072;17.036;2024-01-30T13:07:45;6.72;;;3.30;;
22298;SDS011;11317;51.072;17.036;2024-01-30T13:10:11;7.60;;;3.45;;
22298;SDS011;11317;51.072;17.036;2024-01-30T13:12:37;8.02;;;2.88;;
22298;SDS011;11317;51.072;17.036;2024-01-30T13:15:04;4.55;;;2.70;;
22298;SDS011;11317;51.072;17.036;2024-01-30T13:17:30;4.20;;;2.95;;
22298;SDS011;11317;51.072;17.036;2024-01-30T13:19:57;9.60;;;3.28;;
22298;SDS011;11317;51.072;17.036;2024-01-30T13:22:23;4.32;;;2.60;;
22298;SDS011;11317;51.072;17.036;2024-01-30T13:24:49;6.95;;;3.08;;
22298;SDS011;11317;51.072;17.036;2024-01-30T13:27:16;6.55;;;3.63;;
22298;SDS011;11317;51.072;17.036;2024-01-30T13:29:42;7.00;;;3.38;;
22298;SDS011;11317;51.072;17.036;2024-01-30T13:32:09;8.23;;;3.38;;
22298;SDS011;11317;51.072;17.036;2024-01-30T13:34:35;6.28;;;3.72;;
22298;SDS011;11317;51.072;17.036;2024-01-30T13:37:01;9.05;;;3.25;;
22298;SDS011;11317;51.072;17.036;2024-01-30T13:39:27;10.38;;;3.40;;
22298;SDS011;11317;51.072;17.036;2024-01-30T13:41:54;7.18;;;2.78;;
22298;SDS011;11317;51.072;17.036;2024-01-30T13:44:20;8.80;;;3.28;;
22298;SDS011;11317;51.072;17.036;2024-01-30T13:46:46;5.97;;;3.30;;
22298;SDS011;11317;51.072;17.036;2024-01-30T13:49:13;7.45;;;3.20;;
22298;SDS011;11317;51.072;17.036;2024-01-30T13:51:39;4.57;;;2.92;;
22298;SDS011;11317;51.072;17.036;2024-01-30T13:54:05;7.45;;;3.42;;
22298;SDS011;11317;51.072;17.036;2024-01-30T13:56:31;8.18;;;4.22;;
22298;SDS011;11317;51.072;17.036;2024-01-30T13:58:57;12.15;;;3.55;;
22298;SDS011;11317;51.072;17.036;2024-01-30T14:01:25;4.57;;;3.10;;
22298;SDS011;11317;51.072;17.036;2024-01-30T14:03:51;5.75;;;2.80;;
22298;SDS011;11317;51.072;17.036;2024-01-30T14:06:17;8.05;;;3.72;;
22298;SDS011;11317;51.072;17.036;2024-01-30T14:08:43;4.82;;;3.25;;
22298;SDS011;11317;51.072;17.036;2024-01-30T14:11:09;8.93;;;3.65;;
22298;SDS011;11317;51.072;17.036;2024-01-30T14:13:35;9.27;;;3.20;;
22298;SDS011;11317;51.072;17.036;2024-01-30T14:16:02;7.20;;;3.50;;
22298;SDS011;11317;51.072;17.036;2024-01-30T14:18:28;6.82;;;3.45;;
22298;SDS011;11317;51.072;17.036;2024-01-30T14:20:54;9.50;;;3.10;;
22298;SDS011;11317;51.072;17.036;2024-01-30T14:23:20;5.60;;;3.13;;
22298;SDS011;11317;51.072;17.036;2024-01-30T14:25:46;6.68;;;3.53;;
22298;SDS011;11317;51.072;17.036;2024-01-30T14:28:13;7.07;;;3.70;;